createdAt,value
2022-11-23T00:01:12.794Z,8.40
2022-11-23T00:05:17.111Z,8.40
2022-11-23T00:09:20.316Z,8.40
2022-11-23T00:13:23.175Z,8.40
2022-11-23T00:17:28.081Z,8.40
2022-11-23T00:21:33.382Z,8.40
2022-11-23T00:25:36.273Z,8.40
2022-11-23T00:29:39.141Z,8.40
2022-11-23T00:33:42.243Z,8.40
2022-11-23T00:37:46.531Z,8.30
2022-11-23T00:41:49.554Z,8.40
2022-11-23T00:46:02.705Z,8.40
2022-11-23T00:50:05.821Z,8.40
2022-11-23T00:54:10.756Z,8.40
2022-11-23T00:58:13.603Z,8.40
2022-11-23T01:02:16.451Z,8.40
2022-11-23T01:06:20.181Z,8.40
2022-11-23T01:10:24.445Z,8.40
2022-11-23T01:14:27.290Z,8.40
2022-11-23T01:18:30.137Z,8.40
2022-11-23T01:22:32.993Z,8.40
2022-11-23T01:26:37.171Z,8.30
2022-11-23T01:30:40.066Z,8.40
2022-11-23T01:34:42.910Z,8.40
2022-11-23T01:38:51.298Z,8.40
2022-11-23T01:42:56.464Z,8.40
2022-11-23T01:47:00.109Z,8.50
2022-11-23T01:51:04.105Z,8.50
2022-11-23T01:55:08.738Z,8.50
2022-11-23T01:59:15.554Z,8.50
2022-11-23T02:03:19.906Z,8.50
2022-11-23T02:07:24.047Z,8.50
2022-11-23T02:11:27.040Z,8.60
2022-11-23T02:15:31.577Z,8.60
2022-11-23T02:19:40.135Z,8.60
2022-11-23T02:23:45.159Z,8.60
2022-11-23T02:27:49.936Z,8.60
2022-11-23T02:31:52.773Z,8.60
2022-11-23T02:35:57.679Z,8.60
2022-11-23T02:40:03.077Z,8.60
2022-11-23T02:44:08.900Z,8.70
2022-11-23T02:48:11.752Z,8.60
2022-11-23T02:52:14.593Z,8.60
2022-11-23T02:56:17.439Z,8.60
2022-11-23T03:00:21.738Z,8.60
2022-11-23T03:04:27.861Z,8.60
2022-11-23T03:08:31.451Z,8.60
2022-11-23T03:12:34.364Z,8.60
2022-11-23T03:16:38.591Z,8.60
2022-11-23T03:20:41.465Z,8.60
2022-11-23T03:24:45.424Z,8.60
2022-11-23T03:28:48.288Z,8.60
2022-11-23T03:32:52.536Z,8.60
2022-11-23T03:36:55.380Z,8.60
2022-11-23T03:40:58.223Z,8.60
2022-11-23T03:45:01.077Z,8.60
2022-11-23T03:49:07.527Z,8.60
2022-11-23T03:53:10.413Z,8.50
2022-11-23T03:57:13.243Z,8.60
2022-11-23T04:01:16.187Z,8.50
2022-11-23T04:05:20.561Z,8.50
2022-11-23T04:09:23.402Z,8.60
2022-11-23T04:13:26.350Z,8.50
2022-11-23T04:17:29.520Z,8.50
2022-11-23T04:21:33.771Z,8.50
2022-11-23T04:25:36.622Z,8.50
2022-11-23T04:29:39.504Z,8.60
2022-11-23T04:33:42.370Z,8.60
2022-11-23T04:37:46.590Z,8.60
2022-11-23T04:41:49.525Z,8.50
2022-11-23T04:45:52.387Z,8.60
2022-11-23T04:49:55.226Z,8.50
2022-11-23T04:53:59.487Z,8.50
2022-11-23T04:58:02.353Z,8.50
2022-11-23T05:02:05.211Z,8.50
2022-11-23T05:06:08.414Z,8.50
2022-11-23T05:10:13.060Z,8.50
2022-11-23T05:14:15.911Z,8.50
2022-11-23T05:18:18.727Z,8.50
2022-11-23T05:22:25.812Z,8.50
2022-11-23T05:26:30.033Z,8.50
2022-11-23T05:30:32.941Z,8.40
2022-11-23T05:34:35.798Z,8.40
2022-11-23T05:38:39.781Z,8.40
2022-11-23T05:42:44.143Z,8.30
2022-11-23T05:46:47.085Z,8.30
2022-11-23T05:50:51.109Z,8.20
2022-11-23T05:54:53.953Z,8.20
2022-11-23T05:58:58.265Z,8.10
2022-11-23T06:03:02.643Z,8.00
2022-11-23T06:07:06.037Z,8.00
2022-11-23T06:11:08.937Z,7.90
2022-11-23T06:15:13.566Z,7.90
2022-11-23T06:19:16.415Z,7.90
2022-11-23T06:23:19.257Z,7.90
2022-11-23T06:27:22.246Z,7.80
2022-11-23T06:31:26.468Z,7.80
2022-11-23T06:35:29.323Z,7.80
2022-11-23T06:39:32.316Z,7.80
2022-11-23T06:43:35.339Z,7.70
2022-11-23T06:47:39.629Z,7.70
2022-11-23T06:51:42.491Z,7.70
2022-11-23T06:55:45.317Z,7.60
2022-11-23T06:59:48.452Z,7.60
2022-11-23T07:03:52.702Z,7.60
2022-11-23T07:07:55.674Z,7.60
2022-11-23T07:11:58.527Z,7.60
2022-11-23T07:16:01.382Z,7.60
2022-11-23T07:20:12.310Z,7.60
2022-11-23T07:24:32.852Z,7.60
2022-11-23T07:28:39.284Z,7.70
2022-11-23T07:32:42.312Z,7.70
2022-11-23T07:36:46.548Z,7.80
2022-11-23T07:40:50.935Z,7.80
2022-11-23T07:44:53.844Z,7.90
2022-11-23T07:49:01.363Z,7.90
2022-11-23T07:53:08.281Z,8.00
2022-11-23T07:57:11.129Z,8.00
2022-11-23T08:01:17.958Z,8.10
2022-11-23T08:05:21.558Z,8.10
2022-11-23T08:09:25.817Z,8.20
2022-11-23T08:13:28.636Z,8.30
2022-11-23T08:17:31.589Z,8.30
2022-11-23T08:21:34.434Z,8.30
2022-11-23T08:25:38.686Z,8.40
2022-11-23T08:29:41.583Z,8.40
2022-11-23T08:33:44.425Z,8.40
2022-11-23T08:37:47.266Z,8.50
2022-11-23T08:41:51.514Z,8.50
2022-11-23T08:45:58.896Z,8.60
2022-11-23T08:50:06.641Z,8.60
2022-11-23T08:54:11.567Z,8.60
2022-11-23T08:58:15.834Z,8.70
2022-11-23T09:02:18.764Z,8.70
2022-11-23T09:06:27.039Z,8.80
2022-11-23T09:10:30.110Z,8.80
2022-11-23T09:14:34.882Z,8.90
2022-11-23T09:18:39.133Z,9.00
2022-11-23T09:22:41.994Z,9.10
2022-11-23T09:26:44.839Z,9.30
2022-11-23T09:30:49.204Z,9.40
2022-11-23T09:34:52.098Z,9.50
2022-11-23T09:38:57.094Z,9.60
2022-11-23T09:43:08.007Z,10.00
2022-11-23T09:47:18.626Z,10.70
2022-11-23T09:51:23.007Z,11.40
2022-11-23T09:55:29.123Z,11.80
2022-11-23T09:59:36.660Z,11.90
2022-11-23T10:03:47.041Z,11.90
2022-11-23T10:07:57.577Z,11.80
2022-11-23T10:12:25.394Z,11.70
2022-11-23T10:16:32.146Z,11.50
2022-11-23T10:20:50.438Z,11.30
2022-11-23T10:24:54.127Z,11.20
2022-11-23T10:28:58.336Z,11.20
2022-11-23T10:33:03.067Z,11.30
2022-11-23T10:37:11.132Z,11.30
2022-11-23T10:41:15.822Z,11.50
2022-11-23T10:45:23.442Z,12.10
2022-11-23T10:49:27.977Z,13.00
2022-11-23T10:53:33.906Z,14.60
2022-11-23T11:10:28.298Z,15.60
2022-11-23T11:14:42.030Z,15.80
2022-11-23T11:18:45.757Z,16.50
2022-11-23T11:22:48.704Z,17.10
2022-11-23T11:26:53.882Z,17.80
2022-11-23T11:31:01.087Z,18.50
2022-11-23T11:35:05.632Z,19.00
2022-11-23T11:39:21.209Z,19.60
2022-11-23T11:43:36.209Z,20.10
2022-11-23T11:47:44.695Z,20.70
2022-11-23T11:51:49.875Z,21.00
2022-11-23T11:55:55.617Z,21.20
2022-11-23T12:00:02.697Z,21.50
2022-11-23T12:04:07.804Z,21.50
2022-11-23T12:08:12.614Z,21.80
2022-11-23T12:12:17.766Z,22.00
2022-11-23T12:16:26.993Z,22.20
2022-11-23T12:20:32.087Z,22.70
2022-11-23T12:24:41.288Z,23.00
2022-11-23T12:28:49.991Z,22.90
2022-11-23T12:33:03.460Z,22.90
2022-11-23T12:37:27.317Z,23.10
2022-11-23T12:41:33.871Z,23.10
2022-11-23T12:45:57.394Z,22.50
2022-11-23T12:50:04.561Z,21.70
2022-11-23T12:54:25.238Z,20.90
2022-11-23T12:58:29.027Z,20.00
2022-11-23T13:02:45.090Z,19.20
2022-11-23T13:07:28.895Z,18.50
2022-11-23T13:11:37.779Z,17.90
2022-11-23T13:15:53.109Z,17.20
2022-11-23T13:20:13.640Z,16.60
2022-11-23T13:24:27.779Z,16.10
2022-11-23T13:28:31.718Z,15.60
2022-11-23T13:32:35.344Z,15.30
2022-11-23T13:37:11.808Z,14.90
2022-11-23T13:41:34.976Z,14.60
2022-11-23T13:45:37.958Z,14.30
2022-11-23T13:49:42.492Z,14.10
2022-11-23T13:53:52.473Z,13.90
2022-11-23T13:58:10.177Z,13.70
2022-11-23T14:02:26.638Z,13.50
2022-11-23T14:06:55.508Z,13.20
2022-11-23T14:11:02.598Z,13.00
2022-11-23T14:15:09.316Z,12.80
2022-11-23T14:19:20.196Z,12.70
2022-11-23T14:23:41.350Z,12.50
2022-11-23T14:27:48.203Z,12.30
2022-11-23T14:31:59.615Z,12.20
2022-11-23T14:36:21.154Z,12.10
2022-11-23T14:40:27.226Z,12.00
2022-11-23T14:44:35.533Z,11.80
2022-11-23T14:48:40.042Z,11.70
2022-11-23T14:52:45.914Z,11.50
2022-11-23T14:56:49.368Z,11.40
2022-11-23T15:00:53.778Z,11.30
2022-11-23T15:05:01.763Z,11.10
2022-11-23T15:09:09.912Z,11.00
2022-11-23T15:13:21.412Z,10.90
2022-11-23T15:17:24.670Z,10.80
2022-11-23T15:21:28.358Z,10.70
2022-11-23T15:25:32.748Z,10.60
2022-11-23T15:29:36.418Z,10.50
2022-11-23T15:33:39.735Z,10.40
2022-11-23T15:37:45.174Z,10.30
2022-11-23T15:41:49.620Z,10.20
2022-11-23T15:46:02.759Z,10.10
2022-11-23T15:50:10.078Z,10.00
2022-11-23T15:54:16.919Z,9.90
2022-11-23T15:58:21.944Z,9.90
2022-11-23T16:02:25.726Z,9.80
2022-11-23T16:06:35.287Z,9.60
2022-11-23T16:10:53.689Z,9.60
2022-11-23T16:14:58.757Z,9.50
2022-11-23T16:19:01.683Z,9.40
2022-11-23T16:23:05.663Z,9.40
2022-11-23T16:27:14.933Z,9.30
2022-11-23T16:31:30.129Z,9.20
2022-11-23T16:35:33.123Z,9.10
2022-11-23T16:39:35.988Z,9.00
2022-11-23T16:43:38.896Z,9.00
2022-11-23T16:47:53.932Z,8.90
2022-11-23T16:51:57.627Z,8.80
2022-11-23T16:56:01.988Z,8.80
2022-11-23T17:00:06.228Z,8.70
2022-11-23T17:04:10.844Z,8.60
2022-11-23T17:08:21.632Z,8.60
2022-11-23T17:12:26.381Z,8.50
2022-11-23T17:16:29.324Z,8.40
2022-11-23T17:20:34.674Z,8.40
2022-11-23T17:24:37.607Z,8.30
2022-11-23T17:28:40.503Z,8.30
2022-11-23T17:32:43.400Z,8.20
2022-11-23T17:36:48.483Z,8.10
2022-11-23T17:40:53.373Z,8.10
2022-11-23T17:44:56.243Z,8.10
2022-11-23T17:49:01.841Z,8.00
2022-11-23T17:53:06.180Z,8.00
2022-11-23T17:57:11.577Z,8.00
2022-11-23T18:01:15.621Z,7.90
2022-11-23T18:05:21.926Z,7.90
2022-11-23T18:09:26.432Z,7.90
2022-11-23T18:13:29.364Z,7.80
2022-11-23T18:17:32.220Z,7.80
2022-11-23T18:21:35.042Z,7.80
2022-11-23T18:25:39.331Z,7.70
2022-11-23T18:29:42.355Z,7.70
2022-11-23T18:33:45.234Z,7.60
2022-11-23T18:37:48.315Z,7.60
2022-11-23T18:41:52.501Z,7.50
2022-11-23T18:45:55.489Z,7.50
2022-11-23T18:50:03.341Z,7.50
2022-11-23T18:54:08.946Z,7.50
2022-11-23T18:58:13.510Z,7.50
2022-11-23T19:02:19.293Z,7.60
2022-11-23T19:06:22.941Z,7.60
2022-11-23T19:10:34.272Z,7.60
2022-11-23T19:14:38.504Z,7.60
2022-11-23T19:18:41.506Z,7.70
2022-11-23T19:22:55.143Z,7.70
2022-11-23T19:26:58.601Z,7.80
2022-11-23T19:31:11.221Z,7.90
2022-11-23T19:35:14.560Z,8.00
2022-11-23T19:39:19.540Z,8.10
2022-11-23T19:43:22.403Z,8.10
2022-11-23T19:47:26.707Z,8.20
2022-11-23T19:51:30.616Z,8.20
2022-11-23T19:55:33.502Z,8.30
2022-11-23T19:59:36.613Z,8.30
2022-11-23T20:03:41.640Z,8.30
2022-11-23T20:07:44.977Z,8.40
2022-11-23T20:11:50.837Z,8.40
2022-11-23T20:15:55.505Z,8.40
2022-11-23T20:20:00.262Z,8.40
2022-11-23T20:24:05.810Z,8.40
2022-11-23T20:28:12.030Z,8.50
2022-11-23T20:32:14.994Z,8.50
2022-11-23T20:36:20.555Z,8.50
2022-11-23T20:40:23.540Z,8.50
2022-11-23T20:44:32.319Z,8.50
2022-11-23T20:48:36.967Z,8.50
2022-11-23T20:52:41.282Z,8.50
2022-11-23T20:56:44.148Z,8.40
2022-11-23T21:00:51.389Z,8.40
2022-11-23T21:04:54.859Z,8.40
2022-11-23T21:08:59.128Z,8.30
2022-11-23T21:13:20.129Z,8.30
2022-11-23T21:17:23.078Z,8.30
2022-11-23T21:21:26.599Z,8.30
2022-11-23T21:25:30.883Z,8.30
2022-11-23T21:29:33.993Z,8.30
2022-11-23T21:33:38.278Z,8.30
2022-11-23T21:37:41.160Z,8.30
2022-11-23T21:41:45.801Z,8.30
2022-11-23T21:45:48.997Z,8.30
2022-11-23T21:49:51.879Z,8.30
2022-11-23T21:53:55.272Z,8.20
2022-11-23T21:58:09.712Z,8.20
2022-11-23T22:02:13.052Z,8.20
2022-11-23T22:06:20.690Z,8.20
2022-11-23T22:10:23.898Z,8.20
2022-11-23T22:14:29.285Z,8.20
2022-11-23T22:18:32.235Z,8.20
2022-11-23T22:22:35.081Z,8.10
2022-11-23T22:26:38.087Z,8.10
2022-11-23T22:30:42.594Z,8.20
2022-11-23T22:34:46.594Z,8.20
2022-11-23T22:38:50.021Z,8.10
2022-11-23T22:42:53.850Z,8.10
2022-11-23T22:47:00.131Z,8.10
2022-11-23T22:51:03.199Z,8.10
2022-11-23T22:55:06.576Z,8.10
2022-11-23T22:59:12.111Z,8.10
2022-11-23T23:03:16.567Z,8.00
2022-11-23T23:07:50.451Z,8.00
2022-11-23T23:11:53.430Z,8.00
2022-11-23T23:16:02.725Z,8.00
2022-11-23T23:20:07.698Z,8.00
2022-11-23T23:24:10.905Z,7.90
2022-11-23T23:28:13.769Z,7.90
2022-11-23T23:32:16.927Z,7.90
2022-11-23T23:36:22.022Z,7.90
2022-11-23T23:40:24.899Z,7.80
2022-11-23T23:44:28.537Z,7.80
2022-11-23T23:48:40.041Z,7.70
2022-11-23T23:52:44.395Z,7.70
2022-11-23T23:56:47.273Z,7.70
